createdAt,value
2022-11-10T00:00:20.469Z,78.03
2022-11-10T00:00:41.534Z,78.04
2022-11-10T00:01:02.579Z,78.04
2022-11-10T00:01:23.652Z,78.04
2022-11-10T00:01:44.722Z,78.01
2022-11-10T00:02:05.761Z,78.01
2022-11-10T00:02:26.805Z,77.98
2022-11-10T00:02:47.862Z,77.91
2022-11-10T00:03:08.947Z,77.94
2022-11-10T00:03:30.005Z,77.94
2022-11-10T00:03:51.217Z,77.94
2022-11-10T00:04:12.353Z,77.95
2022-11-10T00:04:33.465Z,77.92
2022-11-10T00:04:54.490Z,77.86
2022-11-10T00:05:15.638Z,77.86
2022-11-10T00:05:36.683Z,77.93
2022-11-10T00:05:57.728Z,77.88
2022-11-10T00:06:18.781Z,77.94
2022-11-10T00:06:40.075Z,77.97
2022-11-10T00:07:01.196Z,77.97
2022-11-10T00:07:22.248Z,77.96
2022-11-10T00:07:43.292Z,77.99
2022-11-10T00:08:04.420Z,77.99
2022-11-10T00:08:25.589Z,77.95
2022-11-10T00:08:46.894Z,77.99
2022-11-10T00:09:08.178Z,77.96
2022-11-10T00:09:29.373Z,77.97
2022-11-10T00:09:50.437Z,77.97
2022-11-10T00:10:11.483Z,78.06
2022-11-10T00:10:32.564Z,78.06
2022-11-10T00:10:53.597Z,78.10
2022-11-10T00:11:14.677Z,78.10
2022-11-10T00:11:35.704Z,78.09
2022-11-10T00:11:56.767Z,78.07
2022-11-10T00:12:17.852Z,78.04
2022-11-10T00:12:38.886Z,77.98
2022-11-10T00:12:59.935Z,77.99
2022-11-10T00:13:21.289Z,77.96
2022-11-10T00:13:42.517Z,78.02
2022-11-10T00:14:03.538Z,78.02
2022-11-10T00:14:24.592Z,78.02
2022-11-10T00:14:45.657Z,77.98
2022-11-10T00:15:06.708Z,77.99
2022-11-10T00:15:27.758Z,77.98
2022-11-10T00:15:48.845Z,77.95
2022-11-10T00:16:09.897Z,78.01
2022-11-10T00:16:31.002Z,78.00
2022-11-10T00:16:52.077Z,78.04
2022-11-10T00:17:13.187Z,77.98
2022-11-10T00:17:34.212Z,77.96
2022-11-10T00:17:55.268Z,77.96
2022-11-10T00:18:16.371Z,78.00
2022-11-10T00:18:37.383Z,77.94
2022-11-10T00:18:58.433Z,77.98
2022-11-10T00:19:19.496Z,77.95
2022-11-10T00:19:40.546Z,77.99
2022-11-10T00:20:01.591Z,78.02
2022-11-10T00:20:22.658Z,78.02
2022-11-10T00:20:43.783Z,78.10
2022-11-10T00:21:04.847Z,78.07
2022-11-10T00:21:25.907Z,78.07
2022-11-10T00:21:46.972Z,78.06
2022-11-10T00:22:08.059Z,78.07
2022-11-10T00:22:29.079Z,78.07
2022-11-10T00:22:50.125Z,78.08
2022-11-10T00:23:11.165Z,78.09
2022-11-10T00:23:32.234Z,78.06
2022-11-10T00:23:53.372Z,78.03
2022-11-10T00:24:14.413Z,78.00
2022-11-10T00:24:35.472Z,77.98
2022-11-10T00:24:56.515Z,77.98
2022-11-10T00:25:17.589Z,77.99
2022-11-10T00:25:38.621Z,78.09
2022-11-10T00:25:59.672Z,78.03
2022-11-10T00:26:20.731Z,77.98
2022-11-10T00:26:41.780Z,77.95
2022-11-10T00:27:02.858Z,77.94
2022-11-10T00:27:23.904Z,78.02
2022-11-10T00:27:44.958Z,78.04
2022-11-10T00:28:06.012Z,78.01
2022-11-10T00:28:27.157Z,77.96
2022-11-10T00:28:48.194Z,77.97
2022-11-10T00:29:09.232Z,78.02
2022-11-10T00:29:30.316Z,77.99
2022-11-10T00:29:51.400Z,77.91
2022-11-10T00:30:12.426Z,77.88
2022-11-10T00:30:33.476Z,77.85
2022-11-10T00:30:54.526Z,77.88
2022-11-10T00:31:15.644Z,77.88
2022-11-10T00:31:36.668Z,77.85
2022-11-10T00:31:57.742Z,77.82
2022-11-10T00:32:18.787Z,77.80
2022-11-10T00:32:39.844Z,77.80
2022-11-10T00:33:00.898Z,77.72
2022-11-10T00:33:22.207Z,77.72
2022-11-10T00:33:44.066Z,77.73
2022-11-10T00:34:05.116Z,77.74
2022-11-10T00:34:26.167Z,77.78
2022-11-10T00:34:47.323Z,77.80
2022-11-10T00:35:08.382Z,77.80
2022-11-10T00:35:29.465Z,77.77
2022-11-10T00:35:50.493Z,77.80
2022-11-10T00:36:11.566Z,77.83
2022-11-10T00:36:32.613Z,77.90
2022-11-10T00:36:53.657Z,77.85
2022-11-10T00:37:14.718Z,77.81
2022-11-10T00:37:35.764Z,77.82
2022-11-10T00:37:56.907Z,77.73
2022-11-10T00:38:17.927Z,77.75
2022-11-10T00:38:38.972Z,77.82
2022-11-10T00:39:00.030Z,77.78
2022-11-10T00:39:21.075Z,77.84
2022-11-10T00:39:42.155Z,77.90
2022-11-10T00:40:03.361Z,77.89
2022-11-10T00:40:24.431Z,77.86
2022-11-10T00:40:45.489Z,77.87
2022-11-10T00:41:06.516Z,77.81
2022-11-10T00:41:27.566Z,77.84
2022-11-10T00:41:48.631Z,77.85
2022-11-10T00:42:09.677Z,77.82
2022-11-10T00:42:31.147Z,77.83
2022-11-10T00:42:52.224Z,77.86
2022-11-10T00:43:13.273Z,77.84
2022-11-10T00:43:34.837Z,77.82
2022-11-10T00:43:56.006Z,77.91
2022-11-10T00:44:17.053Z,77.92
2022-11-10T00:44:38.149Z,77.91
2022-11-10T00:44:59.189Z,77.90
2022-11-10T00:45:20.248Z,77.93
2022-11-10T00:45:41.315Z,77.92
2022-11-10T00:46:02.372Z,77.91
2022-11-10T00:46:23.420Z,77.85
2022-11-10T00:46:44.470Z,77.86
2022-11-10T00:47:05.545Z,77.87
2022-11-10T00:47:26.602Z,77.82
2022-11-10T00:47:47.638Z,77.77
2022-11-10T00:48:08.692Z,77.75
2022-11-10T00:48:29.741Z,77.72
2022-11-10T00:48:50.794Z,77.72
2022-11-10T00:49:11.859Z,77.77
2022-11-10T00:49:32.909Z,77.78
2022-11-10T00:49:53.974Z,77.76
2022-11-10T00:50:15.055Z,77.72
2022-11-10T00:50:36.195Z,77.80
2022-11-10T00:50:57.250Z,77.81
2022-11-10T00:51:18.311Z,77.75
2022-11-10T00:51:39.356Z,77.78
2022-11-10T00:52:00.412Z,77.79
2022-11-10T00:52:21.472Z,77.80
2022-11-10T00:52:42.567Z,77.76
2022-11-10T00:53:03.627Z,77.69
2022-11-10T00:53:24.999Z,77.65
2022-11-10T00:53:46.139Z,77.63
2022-11-10T00:54:07.187Z,77.67
2022-11-10T00:54:28.241Z,77.65
2022-11-10T00:54:49.325Z,77.63
2022-11-10T00:55:10.358Z,77.66
2022-11-10T00:55:31.410Z,77.63
2022-11-10T00:55:52.572Z,77.70
2022-11-10T00:56:13.636Z,77.68
2022-11-10T00:56:34.677Z,77.66
2022-11-10T00:56:55.730Z,77.65
2022-11-10T00:57:16.779Z,77.70
2022-11-10T00:57:37.863Z,77.66
2022-11-10T00:57:58.892Z,77.71
2022-11-10T00:58:19.945Z,77.68
2022-11-10T00:58:41.010Z,77.66
2022-11-10T00:59:02.053Z,77.68
2022-11-10T00:59:23.119Z,77.69
2022-11-10T00:59:44.186Z,77.68
2022-11-10T01:00:05.331Z,77.73
2022-11-10T01:00:26.342Z,77.71
2022-11-10T01:00:47.573Z,77.78
2022-11-10T01:01:08.658Z,77.77
2022-11-10T01:01:29.755Z,77.74
2022-11-10T01:01:50.796Z,77.76
2022-11-10T01:02:11.866Z,77.79
2022-11-10T01:02:32.906Z,77.74
2022-11-10T01:02:53.948Z,77.77
2022-11-10T01:03:15.032Z,77.76
2022-11-10T01:03:36.093Z,77.80
2022-11-10T01:03:57.133Z,77.83
2022-11-10T01:04:18.176Z,77.86
2022-11-10T01:04:39.232Z,77.89
2022-11-10T01:05:00.285Z,77.85
2022-11-10T01:05:21.334Z,77.84
2022-11-10T01:05:42.460Z,77.85
2022-11-10T01:06:03.487Z,77.83
2022-11-10T01:06:24.541Z,77.84
2022-11-10T01:06:45.643Z,77.88
2022-11-10T01:07:06.752Z,77.85
2022-11-10T01:07:27.802Z,77.87
2022-11-10T01:07:48.854Z,77.88
2022-11-10T01:08:09.913Z,77.94
2022-11-10T01:08:30.977Z,77.92
2022-11-10T01:08:52.031Z,77.90
2022-11-10T01:09:13.138Z,77.91
2022-11-10T01:09:34.175Z,77.85
2022-11-10T01:09:55.229Z,77.90
2022-11-10T01:10:16.269Z,77.85
2022-11-10T01:10:37.354Z,77.91
2022-11-10T01:10:58.412Z,77.89
2022-11-10T01:11:19.554Z,77.89
2022-11-10T01:11:40.604Z,77.87
2022-11-10T01:12:01.699Z,77.91
2022-11-10T01:12:22.738Z,77.81
2022-11-10T01:12:43.786Z,77.77
2022-11-10T01:13:04.882Z,77.70
2022-11-10T01:13:25.953Z,77.65
2022-11-10T01:13:47.016Z,77.67
2022-11-10T01:14:08.082Z,77.62
2022-11-10T01:14:29.166Z,77.62
2022-11-10T01:14:50.235Z,77.67
2022-11-10T01:15:11.281Z,77.59
2022-11-10T01:15:32.342Z,77.59
2022-11-10T01:15:53.531Z,77.54
2022-11-10T01:16:14.619Z,77.57
2022-11-10T01:16:35.653Z,77.56
2022-11-10T01:16:56.714Z,77.53
2022-11-10T01:17:17.783Z,77.51
2022-11-10T01:17:38.852Z,77.48
2022-11-10T01:17:59.891Z,77.51
2022-11-10T01:18:20.940Z,77.52
2022-11-10T01:18:41.990Z,77.57
2022-11-10T01:19:03.196Z,77.54
2022-11-10T01:19:24.261Z,77.54
2022-11-10T01:19:45.311Z,77.63
2022-11-10T01:20:06.369Z,77.57
2022-11-10T01:20:27.413Z,77.56
2022-11-10T01:20:48.474Z,77.57
2022-11-10T01:21:09.531Z,77.49
2022-11-10T01:21:30.608Z,77.40
2022-11-10T01:21:51.653Z,77.45
2022-11-10T01:22:12.710Z,77.40
2022-11-10T01:22:33.832Z,77.40
2022-11-10T01:22:54.863Z,77.40
2022-11-10T01:23:15.916Z,77.34
2022-11-10T01:23:37.003Z,77.37
2022-11-10T01:23:58.045Z,77.40
2022-11-10T01:24:19.096Z,77.42
2022-11-10T01:24:40.150Z,77.40
2022-11-10T01:25:01.225Z,77.43
2022-11-10T01:25:22.306Z,77.40
2022-11-10T01:25:43.342Z,77.40
2022-11-10T01:26:04.385Z,77.39
2022-11-10T01:26:25.460Z,77.30
2022-11-10T01:26:46.537Z,77.23
2022-11-10T01:27:07.565Z,77.22
2022-11-10T01:27:28.620Z,77.21
2022-11-10T01:27:49.670Z,77.18
2022-11-10T01:28:10.725Z,77.25
2022-11-10T01:28:31.769Z,77.17
2022-11-10T01:28:52.832Z,77.21
2022-11-10T01:29:13.878Z,77.16
2022-11-10T01:29:34.935Z,77.13
2022-11-10T01:29:55.992Z,77.18
2022-11-10T01:30:17.050Z,77.19
2022-11-10T01:30:38.103Z,77.15
2022-11-10T01:30:59.159Z,77.16
2022-11-10T01:31:20.202Z,77.14
2022-11-10T01:31:41.366Z,77.23
2022-11-10T01:32:02.415Z,77.13
2022-11-10T01:32:23.482Z,77.15
2022-11-10T01:32:44.510Z,77.16
2022-11-10T01:33:05.590Z,77.19
2022-11-10T01:33:26.631Z,77.22
2022-11-10T01:33:47.677Z,77.19
2022-11-10T01:34:08.748Z,77.21
2022-11-10T01:34:29.786Z,77.23
2022-11-10T01:34:50.836Z,77.23
2022-11-10T01:35:11.885Z,77.22
2022-11-10T01:35:33.021Z,77.32
2022-11-10T01:35:54.069Z,77.33
2022-11-10T01:36:15.129Z,77.33
2022-11-10T01:36:36.294Z,77.34
2022-11-10T01:36:57.485Z,77.36
2022-11-10T01:37:18.563Z,77.30
2022-11-10T01:37:39.598Z,77.26
2022-11-10T01:38:00.647Z,77.28
2022-11-10T01:38:21.739Z,77.27
2022-11-10T01:38:42.774Z,77.28
2022-11-10T01:39:03.830Z,77.31
2022-11-10T01:39:24.879Z,77.37
2022-11-10T01:39:45.962Z,77.35
2022-11-10T01:40:07.057Z,77.31
2022-11-10T01:40:28.161Z,77.30
2022-11-10T01:40:49.214Z,77.22
2022-11-10T01:41:10.238Z,77.19
2022-11-10T01:41:31.308Z,77.21
2022-11-10T01:41:52.372Z,77.19
2022-11-10T01:42:13.534Z,77.29
2022-11-10T01:42:34.587Z,77.25
2022-11-10T01:42:55.742Z,77.27
2022-11-10T01:43:16.752Z,77.26
2022-11-10T01:43:37.801Z,77.28
2022-11-10T01:43:58.866Z,77.36
2022-11-10T01:44:19.906Z,77.39
2022-11-10T01:44:40.947Z,77.36
2022-11-10T01:45:02.022Z,77.32
2022-11-10T01:45:23.067Z,77.27
2022-11-10T01:45:44.165Z,77.29
2022-11-10T01:46:05.199Z,77.35
2022-11-10T01:46:26.237Z,77.30
2022-11-10T01:46:47.369Z,77.32
2022-11-10T01:47:08.394Z,77.31
2022-11-10T01:47:29.519Z,77.33
2022-11-10T01:47:50.537Z,77.32
2022-11-10T01:48:11.594Z,77.29
2022-11-10T01:48:32.656Z,77.32
2022-11-10T01:48:53.691Z,77.30
2022-11-10T01:49:14.742Z,77.28
2022-11-10T01:49:35.788Z,77.19
2022-11-10T01:49:56.875Z,77.13
2022-11-10T01:50:17.932Z,77.11
2022-11-10T01:50:38.969Z,77.17
2022-11-10T01:51:00.011Z,77.12
2022-11-10T01:51:21.074Z,77.15
2022-11-10T01:51:42.120Z,77.14
2022-11-10T01:52:03.156Z,77.22
2022-11-10T01:52:24.325Z,77.22
2022-11-10T01:52:45.369Z,77.26
2022-11-10T01:53:06.433Z,77.29
2022-11-10T01:53:27.474Z,77.23
2022-11-10T01:53:48.520Z,77.22
2022-11-10T01:54:09.587Z,77.21
2022-11-10T01:54:30.630Z,77.19
2022-11-10T01:54:51.690Z,77.20
2022-11-10T01:55:12.755Z,77.20
2022-11-10T01:55:33.803Z,77.29
2022-11-10T01:55:54.852Z,77.32
2022-11-10T01:56:15.910Z,77.33
2022-11-10T01:56:36.968Z,77.35
2022-11-10T01:56:58.017Z,77.36
2022-11-10T01:57:19.068Z,77.42
2022-11-10T01:57:40.118Z,77.47
2022-11-10T01:58:01.168Z,77.48
2022-11-10T01:58:22.224Z,77.51
2022-11-10T01:58:43.284Z,77.52
2022-11-10T01:59:04.328Z,77.49
2022-11-10T01:59:25.379Z,77.54
2022-11-10T01:59:46.447Z,77.53
2022-11-10T02:00:07.480Z,77.53
2022-11-10T02:00:28.579Z,77.55
2022-11-10T02:00:49.681Z,77.50
2022-11-10T02:01:10.834Z,77.54
2022-11-10T02:01:31.901Z,77.51
2022-11-10T02:01:52.946Z,77.56
2022-11-10T02:02:14.022Z,77.60
2022-11-10T02:02:35.068Z,77.62
2022-11-10T02:02:56.128Z,77.64
2022-11-10T02:03:17.177Z,77.65
2022-11-10T02:03:38.229Z,77.69
2022-11-10T02:03:59.362Z,77.69
2022-11-10T02:04:20.403Z,77.65
2022-11-10T02:04:41.435Z,77.62
2022-11-10T02:05:02.484Z,77.58
2022-11-10T02:05:23.598Z,77.65
2022-11-10T02:05:44.607Z,77.62
2022-11-10T02:06:05.669Z,77.68
2022-11-10T02:06:26.756Z,77.80
2022-11-10T02:06:47.934Z,77.77
2022-11-10T02:07:09.058Z,77.81
2022-11-10T02:07:30.080Z,77.87
2022-11-10T02:07:51.132Z,77.85
2022-11-10T02:08:12.197Z,77.91
2022-11-10T02:08:33.341Z,77.90
2022-11-10T02:08:54.394Z,77.90
2022-11-10T02:09:15.461Z,77.87
2022-11-10T02:09:36.509Z,77.89
2022-11-10T02:09:57.568Z,77.82
2022-11-10T02:10:18.608Z,77.80
2022-11-10T02:10:39.670Z,77.71
2022-11-10T02:11:00.710Z,77.70
2022-11-10T02:11:21.779Z,77.75
2022-11-10T02:11:42.821Z,77.73
2022-11-10T02:12:03.867Z,77.73
2022-11-10T02:12:24.919Z,77.73
2022-11-10T02:12:45.963Z,77.74
2022-11-10T02:13:07.003Z,77.77
2022-11-10T02:13:28.072Z,77.74
2022-11-10T02:13:49.128Z,77.72
2022-11-10T02:14:10.184Z,77.68
2022-11-10T02:14:31.235Z,77.72
2022-11-10T02:14:52.333Z,77.69
2022-11-10T02:15:13.378Z,77.71
2022-11-10T02:15:34.411Z,77.70
2022-11-10T02:15:55.460Z,77.70
2022-11-10T02:16:16.527Z,77.63
2022-11-10T02:16:37.570Z,77.62
2022-11-10T02:16:58.631Z,77.56
2022-11-10T02:17:19.791Z,77.61
2022-11-10T02:17:40.818Z,77.57
2022-11-10T02:18:01.862Z,77.60
2022-11-10T02:18:22.910Z,77.58
2022-11-10T02:18:43.973Z,77.65
2022-11-10T02:19:05.029Z,77.60
2022-11-10T02:19:26.098Z,77.58
2022-11-10T02:19:47.163Z,77.56
2022-11-10T02:20:08.218Z,77.59
2022-11-10T02:20:29.240Z,77.60
2022-11-10T02:20:50.296Z,77.56
2022-11-10T02:21:11.354Z,77.57
2022-11-10T02:21:32.403Z,77.50
2022-11-10T02:21:53.465Z,77.58
2022-11-10T02:22:14.516Z,77.59
2022-11-10T02:22:35.591Z,77.58
2022-11-10T02:22:56.600Z,77.62
2022-11-10T02:23:17.661Z,77.55
2022-11-10T02:23:38.715Z,77.52
2022-11-10T02:23:59.846Z,77.47
2022-11-10T02:24:20.899Z,77.43
2022-11-10T02:24:41.961Z,77.40
2022-11-10T02:25:03.001Z,77.39
2022-11-10T02:25:24.042Z,77.37
2022-11-10T02:25:45.088Z,77.30
2022-11-10T02:26:06.152Z,77.36
2022-11-10T02:26:27.284Z,77.32
2022-11-10T02:26:48.404Z,77.25
2022-11-10T02:27:09.464Z,77.31
2022-11-10T02:27:30.503Z,77.29
2022-11-10T02:27:51.566Z,77.28
2022-11-10T02:28:12.612Z,77.30
2022-11-10T02:28:33.674Z,77.32
2022-11-10T02:28:54.712Z,77.24
2022-11-10T02:29:15.769Z,77.26
2022-11-10T02:29:36.839Z,77.21
2022-11-10T02:29:57.889Z,77.22
2022-11-10T02:30:18.940Z,77.24
2022-11-10T02:30:39.993Z,77.31
2022-11-10T02:31:01.038Z,77.26
2022-11-10T02:31:22.079Z,77.36
2022-11-10T02:31:43.130Z,77.35
2022-11-10T02:32:04.383Z,77.43
2022-11-10T02:32:25.405Z,77.48
2022-11-10T02:32:46.462Z,77.49
2022-11-10T02:33:07.502Z,77.52
2022-11-10T02:33:28.552Z,77.51
2022-11-10T02:33:49.589Z,77.45
2022-11-10T02:34:10.646Z,77.36
2022-11-10T02:34:31.729Z,77.32
2022-11-10T02:34:52.761Z,77.33
2022-11-10T02:35:13.814Z,77.36
2022-11-10T02:35:34.905Z,77.42
2022-11-10T02:35:55.951Z,77.39
2022-11-10T02:36:16.998Z,77.43
2022-11-10T02:36:38.066Z,77.37
2022-11-10T02:36:59.129Z,77.42
2022-11-10T02:37:20.223Z,77.44
2022-11-10T02:37:41.274Z,77.48
2022-11-10T02:38:02.314Z,77.48
2022-11-10T02:38:23.359Z,77.51
2022-11-10T02:38:44.503Z,77.54
2022-11-10T02:39:05.518Z,77.48
2022-11-10T02:39:26.558Z,77.45
2022-11-10T02:39:47.620Z,77.41
2022-11-10T02:40:08.678Z,77.44
2022-11-10T02:40:29.728Z,77.45
2022-11-10T02:40:50.790Z,77.46
2022-11-10T02:41:11.828Z,77.45
2022-11-10T02:41:32.881Z,77.44
2022-11-10T02:41:53.929Z,77.40
2022-11-10T02:42:14.972Z,77.43
2022-11-10T02:42:36.179Z,77.35
2022-11-10T02:42:57.209Z,77.39
2022-11-10T02:43:18.326Z,77.42
2022-11-10T02:43:39.385Z,77.31
2022-11-10T02:44:00.465Z,77.29
2022-11-10T02:44:21.507Z,77.23
2022-11-10T02:44:42.546Z,77.19
2022-11-10T02:45:03.607Z,77.21
2022-11-10T02:45:24.645Z,77.19
2022-11-10T02:45:45.703Z,77.25
2022-11-10T02:46:06.813Z,77.21
2022-11-10T02:46:27.843Z,77.21
2022-11-10T02:46:48.895Z,77.29
2022-11-10T02:47:09.941Z,77.22
2022-11-10T02:47:30.972Z,77.22
2022-11-10T02:47:52.047Z,77.17
2022-11-10T02:48:13.071Z,77.18
2022-11-10T02:48:34.124Z,77.23
2022-11-10T02:48:55.179Z,77.27
2022-11-10T02:49:16.342Z,77.31
2022-11-10T02:49:37.401Z,77.35
2022-11-10T02:49:58.455Z,77.42
2022-11-10T02:50:19.506Z,77.48
2022-11-10T02:50:40.545Z,77.48
2022-11-10T02:51:01.589Z,77.48
2022-11-10T02:51:22.648Z,77.50
2022-11-10T02:51:43.693Z,77.49
2022-11-10T02:52:04.728Z,77.43
2022-11-10T02:52:25.859Z,77.45
2022-11-10T02:52:46.866Z,77.44
2022-11-10T02:53:07.922Z,77.49
2022-11-10T02:53:28.957Z,77.51
2022-11-10T02:53:50.014Z,77.60
2022-11-10T02:54:11.114Z,77.63
2022-11-10T02:54:32.166Z,77.63
2022-11-10T02:54:53.231Z,77.62
2022-11-10T02:55:14.335Z,77.63
2022-11-10T02:55:35.358Z,77.63
2022-11-10T02:55:56.413Z,77.60
2022-11-10T02:56:17.466Z,77.65
2022-11-10T02:56:38.515Z,77.64
2022-11-10T02:56:59.586Z,77.73
2022-11-10T02:57:20.618Z,77.71
2022-11-10T02:57:41.655Z,77.69
2022-11-10T02:58:02.712Z,77.69
2022-11-10T02:58:23.770Z,77.69
2022-11-10T02:58:44.812Z,77.72
2022-11-10T02:59:05.946Z,77.67
2022-11-10T02:59:26.975Z,77.69
2022-11-10T02:59:48.020Z,77.66
2022-11-10T03:00:09.097Z,77.66
2022-11-10T03:00:30.160Z,77.61
2022-11-10T03:00:51.258Z,77.61
2022-11-10T03:01:12.322Z,77.57
2022-11-10T03:01:33.469Z,77.63
2022-11-10T03:01:54.488Z,77.73
2022-11-10T03:02:15.562Z,77.70
2022-11-10T03:02:36.651Z,77.74
2022-11-10T03:02:57.755Z,77.77
2022-11-10T03:03:19.063Z,77.76
2022-11-10T03:03:40.227Z,77.81
2022-11-10T03:04:01.379Z,77.79
2022-11-10T03:04:22.392Z,77.79
2022-11-10T03:04:43.438Z,77.84
2022-11-10T03:05:04.503Z,77.88
2022-11-10T03:05:25.591Z,77.98
2022-11-10T03:05:46.643Z,77.90
2022-11-10T03:06:07.695Z,77.99
2022-11-10T03:06:28.740Z,78.01
2022-11-10T03:06:49.837Z,77.93
2022-11-10T03:07:10.931Z,77.98
2022-11-10T03:07:32.015Z,78.02
2022-11-10T03:07:53.080Z,77.98
2022-11-10T03:08:14.221Z,77.95
2022-11-10T03:08:35.249Z,77.97
2022-11-10T03:08:56.310Z,78.05
2022-11-10T03:09:17.379Z,77.97
2022-11-10T03:09:38.434Z,78.04
2022-11-10T03:09:59.474Z,77.94
2022-11-10T03:10:20.544Z,77.85
2022-11-10T03:10:41.575Z,77.72
2022-11-10T03:11:02.625Z,77.65
2022-11-10T03:11:26.842Z,77.65
2022-11-10T03:11:50.650Z,77.77
2022-11-10T03:12:11.684Z,77.84
2022-11-10T03:12:32.804Z,77.86
2022-11-10T03:12:53.804Z,77.87
2022-11-10T03:13:14.861Z,77.89
2022-11-10T03:13:59.020Z,77.90
2022-11-10T03:14:03.032Z,77.97
2022-11-10T03:14:24.089Z,77.99
2022-11-10T03:14:45.126Z,78.00
2022-11-10T03:15:06.185Z,77.97
2022-11-10T03:15:27.211Z,78.02
2022-11-10T03:15:48.268Z,78.00
2022-11-10T03:16:09.324Z,77.94
2022-11-10T03:16:30.448Z,77.97
2022-11-10T03:16:51.474Z,77.94
2022-11-10T03:17:12.513Z,77.91
2022-11-10T03:17:33.570Z,77.87
2022-11-10T03:17:54.655Z,77.88
2022-11-10T03:18:15.709Z,77.95
2022-11-10T03:18:36.737Z,77.98
2022-11-10T03:18:57.922Z,77.95
2022-11-10T03:19:18.948Z,77.90
2022-11-10T03:19:40.011Z,77.89
2022-11-10T03:20:01.062Z,77.92
2022-11-10T03:20:22.106Z,77.91
2022-11-10T03:20:43.154Z,77.93
2022-11-10T03:21:04.229Z,78.00
2022-11-10T03:21:25.247Z,78.03
2022-11-10T03:21:46.335Z,77.98
2022-11-10T03:22:07.378Z,77.96
2022-11-10T03:22:28.437Z,77.90
2022-11-10T03:22:49.473Z,78.01
2022-11-10T03:23:10.558Z,78.05
2022-11-10T03:23:31.610Z,78.05
2022-11-10T03:23:52.649Z,78.04
2022-11-10T03:24:13.747Z,78.00
2022-11-10T03:24:34.811Z,78.02
2022-11-10T03:24:55.917Z,78.04
2022-11-10T03:25:16.954Z,78.05
2022-11-10T03:25:38.013Z,78.08
2022-11-10T03:25:59.048Z,78.12
2022-11-10T03:26:20.101Z,78.17
2022-11-10T03:26:41.174Z,78.25
2022-11-10T03:27:02.250Z,78.22
2022-11-10T03:27:23.280Z,78.21
2022-11-10T03:27:44.321Z,78.23
2022-11-10T03:28:05.398Z,78.20
2022-11-10T03:28:26.446Z,78.22
2022-11-10T03:28:47.481Z,78.21
2022-11-10T03:29:08.540Z,78.18
2022-11-10T03:29:29.594Z,78.17
2022-11-10T03:29:50.749Z,78.18
2022-11-10T03:30:11.797Z,78.16
2022-11-10T03:30:32.867Z,78.03
2022-11-10T03:30:53.897Z,78.01
2022-11-10T03:31:14.969Z,78.03
2022-11-10T03:31:35.997Z,78.00
2022-11-10T03:31:57.047Z,78.02
2022-11-10T03:32:18.109Z,78.02
2022-11-10T03:32:39.153Z,77.94
2022-11-10T03:33:00.198Z,78.01
2022-11-10T03:33:21.691Z,78.00
2022-11-10T03:33:42.915Z,77.90
2022-11-10T03:34:03.970Z,78.00
2022-11-10T03:34:29.332Z,77.95
2022-11-10T03:34:51.987Z,78.00
2022-11-10T03:35:13.138Z,78.01
2022-11-10T03:35:34.250Z,78.04
2022-11-10T03:35:55.289Z,78.04
2022-11-10T03:36:16.334Z,78.00
2022-11-10T03:36:37.392Z,77.98
2022-11-10T03:36:58.469Z,77.97
2022-11-10T03:37:19.498Z,78.01
2022-11-10T03:37:40.564Z,77.96
2022-11-10T03:38:01.626Z,77.92
2022-11-10T03:38:22.661Z,77.92
2022-11-10T03:38:43.711Z,77.93
2022-11-10T03:39:04.876Z,77.93
2022-11-10T03:39:25.881Z,77.92
2022-11-10T03:39:46.926Z,77.89
2022-11-10T03:40:07.981Z,77.88
2022-11-10T03:40:29.161Z,77.87
2022-11-10T03:41:17.561Z,77.88
2022-11-10T03:41:20.283Z,77.95
2022-11-10T03:41:41.772Z,77.99
2022-11-10T03:42:02.849Z,78.00
2022-11-10T03:42:23.877Z,78.02
2022-11-10T03:42:44.928Z,78.05
2022-11-10T03:43:05.983Z,78.10
2022-11-10T03:43:27.031Z,78.08
2022-11-10T03:43:48.082Z,78.10
2022-11-10T03:44:09.125Z,78.15
2022-11-10T03:44:30.229Z,78.21
2022-11-10T03:44:51.250Z,78.17
2022-11-10T03:45:12.304Z,78.18
2022-11-10T03:45:33.416Z,78.19
2022-11-10T03:45:54.457Z,78.13
2022-11-10T03:46:15.503Z,78.11
2022-11-10T03:46:36.569Z,78.07
2022-11-10T03:46:57.619Z,78.02
2022-11-10T03:47:18.686Z,78.04
2022-11-10T03:47:39.746Z,78.04
2022-11-10T03:48:00.804Z,78.02
2022-11-10T03:48:21.844Z,78.04
2022-11-10T03:48:42.924Z,77.99
2022-11-10T03:49:03.994Z,78.04
2022-11-10T03:49:24.993Z,77.98
2022-11-10T03:49:46.082Z,78.06
2022-11-10T03:50:07.099Z,77.97
2022-11-10T03:50:28.182Z,78.07
2022-11-10T03:50:49.248Z,77.99
2022-11-10T03:51:10.276Z,78.03
2022-11-10T03:51:31.345Z,78.04
2022-11-10T03:51:52.372Z,77.97
2022-11-10T03:52:13.415Z,78.05
2022-11-10T03:52:34.475Z,78.00
2022-11-10T03:52:55.508Z,77.88
2022-11-10T03:53:16.560Z,77.93
2022-11-10T03:53:37.605Z,77.87
2022-11-10T03:53:58.688Z,77.81
2022-11-10T03:54:19.721Z,77.87
2022-11-10T03:54:40.763Z,77.79
2022-11-10T03:55:03.462Z,77.80
2022-11-10T03:55:24.623Z,77.87
2022-11-10T03:55:45.678Z,77.86
2022-11-10T03:56:06.758Z,77.89
2022-11-10T03:56:27.826Z,77.93
2022-11-10T03:56:48.869Z,77.91
2022-11-10T03:57:09.920Z,77.92
2022-11-10T03:57:30.974Z,77.97
2022-11-10T03:57:52.062Z,77.96
2022-11-10T03:58:13.088Z,77.97
2022-11-10T03:58:34.140Z,77.95
2022-11-10T03:58:55.180Z,77.96
2022-11-10T03:59:16.286Z,77.95
2022-11-10T03:59:37.311Z,77.95
2022-11-10T03:59:58.373Z,77.93
2022-11-10T04:00:19.422Z,77.88
2022-11-10T04:00:40.467Z,77.86
2022-11-10T04:01:01.605Z,77.89
2022-11-10T04:01:22.817Z,77.93
2022-11-10T04:01:43.891Z,77.85
2022-11-10T04:02:04.971Z,77.88
2022-11-10T04:02:26.022Z,77.91
2022-11-10T04:02:47.073Z,77.91
2022-11-10T04:03:08.192Z,77.91
2022-11-10T04:03:29.210Z,77.91
2022-11-10T04:03:51.647Z,77.87
2022-11-10T04:04:12.887Z,77.89
2022-11-10T04:04:33.924Z,77.92
2022-11-10T04:04:54.980Z,77.89
2022-11-10T04:05:16.052Z,77.95
2022-11-10T04:05:37.078Z,77.98
2022-11-10T04:05:58.155Z,78.00
2022-11-10T04:06:19.191Z,77.95
2022-11-10T04:06:40.312Z,77.96
2022-11-10T04:07:01.376Z,78.02
2022-11-10T04:07:22.406Z,77.98
2022-11-10T04:07:43.531Z,78.02
2022-11-10T04:08:04.568Z,78.02
2022-11-10T04:08:25.591Z,78.01
2022-11-10T04:08:46.655Z,77.97
2022-11-10T04:09:07.733Z,77.95
2022-11-10T04:09:28.782Z,77.94
2022-11-10T04:09:50.063Z,77.95
2022-11-10T04:10:11.121Z,77.97
2022-11-10T04:10:32.177Z,78.00
2022-11-10T04:10:53.226Z,77.98
2022-11-10T04:11:14.263Z,78.04
2022-11-10T04:11:35.320Z,78.01
2022-11-10T04:11:56.440Z,77.99
2022-11-10T04:12:20.779Z,77.98
2022-11-10T04:12:44.457Z,77.98
2022-11-10T04:13:05.493Z,78.03
2022-11-10T04:13:26.552Z,78.02
2022-11-10T04:13:47.592Z,78.01
2022-11-10T04:14:08.644Z,77.99
2022-11-10T04:14:29.694Z,77.98
2022-11-10T04:14:50.733Z,78.00
2022-11-10T04:15:11.865Z,78.01
2022-11-10T04:15:32.865Z,77.98
2022-11-10T04:15:53.918Z,78.02
2022-11-10T04:16:14.981Z,78.01
2022-11-10T04:16:36.018Z,77.95
2022-11-10T04:16:57.117Z,77.90
2022-11-10T04:17:18.164Z,77.92
2022-11-10T04:17:39.269Z,77.97
2022-11-10T04:18:00.317Z,78.04
2022-11-10T04:18:21.368Z,78.06
2022-11-10T04:18:42.408Z,78.12
2022-11-10T04:19:03.474Z,78.07
2022-11-10T04:19:24.526Z,78.05
2022-11-10T04:19:45.564Z,78.02
2022-11-10T04:20:06.623Z,78.04
2022-11-10T04:20:27.681Z,77.97
2022-11-10T04:20:48.732Z,78.00
2022-11-10T04:21:09.786Z,78.01
2022-11-10T04:21:30.827Z,78.00
2022-11-10T04:21:51.966Z,77.98
2022-11-10T04:22:13.121Z,77.98
2022-11-10T04:22:34.176Z,77.92
2022-11-10T04:22:55.224Z,77.93
2022-11-10T04:23:16.267Z,77.94
2022-11-10T04:23:37.333Z,78.00
2022-11-10T04:23:58.377Z,78.02
2022-11-10T04:24:19.434Z,78.03
2022-11-10T04:24:40.484Z,78.10
2022-11-10T04:25:01.622Z,78.09
2022-11-10T04:25:22.629Z,78.05
2022-11-10T04:25:43.677Z,77.97
2022-11-10T04:26:04.746Z,77.95
2022-11-10T04:26:25.804Z,77.95
2022-11-10T04:26:46.852Z,77.94
2022-11-10T04:27:07.923Z,77.91
2022-11-10T04:27:29.063Z,77.92
2022-11-10T04:27:50.121Z,77.91
2022-11-10T04:28:11.186Z,77.85
2022-11-10T04:28:32.221Z,77.88
2022-11-10T04:28:53.277Z,77.90
2022-11-10T04:29:14.315Z,77.93
2022-11-10T04:29:35.426Z,77.98
2022-11-10T04:29:56.454Z,77.95
2022-11-10T04:30:17.515Z,77.98
2022-11-10T04:30:38.554Z,77.98
2022-11-10T04:30:59.616Z,77.98
2022-11-10T04:31:20.662Z,77.96
2022-11-10T04:31:41.716Z,77.86
2022-11-10T04:32:02.764Z,77.84